sensor_id;sensor_type;location;lat;lon;timestamp;P1;durP1;ratioP1;P2;durP2;ratioP2
35540;SDS011;21650;48.840;9.162;2023-02-28T00:00:19;4.07;;;2.73;;
35540;SDS011;21650;48.840;9.162;2023-02-28T00:02:45;2.57;;;2.37;;
35540;SDS011;21650;48.840;9.162;2023-02-28T00:05:12;2.10;;;1.90;;
35540;SDS011;21650;48.840;9.162;2023-02-28T00:07:39;4.30;;;2.43;;
35540;SDS011;21650;48.840;9.162;2023-02-28T00:10:06;4.10;;;2.43;;
35540;SDS011;21650;48.840;9.162;2023-02-28T00:12:33;4.37;;;2.60;;
35540;SDS011;21650;48.840;9.162;2023-02-28T00:15:00;4.10;;;2.57;;
35540;SDS011;21650;48.840;9.162;2023-02-28T00:17:26;2.90;;;2.50;;
35540;SDS011;21650;48.840;9.162;2023-02-28T00:19:51;3.70;;;2.53;;
35540;SDS011;21650;48.840;9.162;2023-02-28T00:22:18;6.30;;;2.80;;
35540;SDS011;21650;48.840;9.162;2023-02-28T00:24:45;4.40;;;2.47;;
35540;SDS011;21650;48.840;9.162;2023-02-28T00:27:11;3.63;;;3.00;;
35540;SDS011;21650;48.840;9.162;2023-02-28T00:29:37;4.97;;;2.80;;
35540;SDS011;21650;48.840;9.162;2023-02-28T00:32:03;5.13;;;2.90;;
35540;SDS011;21650;48.840;9.162;2023-02-28T00:34:29;3.60;;;2.77;;
35540;SDS011;21650;48.840;9.162;2023-02-28T00:36:55;6.43;;;3.00;;
35540;SDS011;21650;48.840;9.162;2023-02-28T00:39:20;5.53;;;2.90;;
35540;SDS011;21650;48.840;9.162;2023-02-28T00:41:46;3.40;;;2.47;;
35540;SDS011;21650;48.840;9.162;2023-02-28T00:44:12;4.67;;;2.83;;
35540;SDS011;21650;48.840;9.162;2023-02-28T00:46:37;5.80;;;3.03;;
35540;SDS011;21650;48.840;9.162;2023-02-28T00:49:03;5.77;;;3.20;;
35540;SDS011;21650;48.840;9.162;2023-02-28T00:51:28;3.07;;;2.53;;
35540;SDS011;21650;48.840;9.162;2023-02-28T00:53:54;2.73;;;2.50;;
35540;SDS011;21650;48.840;9.162;2023-02-28T00:56:19;3.83;;;2.93;;
35540;SDS011;21650;48.840;9.162;2023-02-28T00:58:45;4.53;;;2.93;;
35540;SDS011;21650;48.840;9.162;2023-02-28T01:01:11;2.57;;;2.37;;
35540;SDS011;21650;48.840;9.162;2023-02-28T01:03:36;3.30;;;2.87;;
35540;SDS011;21650;48.840;9.162;2023-02-28T01:06:02;4.60;;;3.10;;
35540;SDS011;21650;48.840;9.162;2023-02-28T01:08:28;3.33;;;2.70;;
35540;SDS011;21650;48.840;9.162;2023-02-28T01:10:53;4.97;;;3.30;;
35540;SDS011;21650;48.840;9.162;2023-02-28T01:13:19;4.60;;;3.03;;
35540;SDS011;21650;48.840;9.162;2023-02-28T01:15:49;5.27;;;3.47;;
35540;SDS011;21650;48.840;9.162;2023-02-28T01:18:17;6.27;;;3.43;;
35540;SDS011;21650;48.840;9.162;2023-02-28T01:20:43;4.60;;;3.27;;
35540;SDS011;21650;48.840;9.162;2023-02-28T01:23:09;5.03;;;3.00;;
35540;SDS011;21650;48.840;9.162;2023-02-28T01:25:35;4.63;;;3.60;;
35540;SDS011;21650;48.840;9.162;2023-02-28T01:28:01;4.97;;;2.73;;
35540;SDS011;21650;48.840;9.162;2023-02-28T01:30:26;4.40;;;3.53;;
35540;SDS011;21650;48.840;9.162;2023-02-28T01:32:52;9.20;;;4.07;;
35540;SDS011;21650;48.840;9.162;2023-02-28T01:35:18;4.30;;;3.53;;
35540;SDS011;21650;48.840;9.162;2023-02-28T01:37:44;7.10;;;3.57;;
35540;SDS011;21650;48.840;9.162;2023-02-28T01:40:10;6.17;;;3.87;;
35540;SDS011;21650;48.840;9.162;2023-02-28T01:42:37;3.57;;;3.07;;
35540;SDS011;21650;48.840;9.162;2023-02-28T01:47:42;4.90;;;3.53;;
35540;SDS011;21650;48.840;9.162;2023-02-28T01:50:09;3.73;;;3.30;;
35540;SDS011;21650;48.840;9.162;2023-02-28T01:52:41;4.43;;;3.50;;
35540;SDS011;21650;48.840;9.162;2023-02-28T01:55:08;5.60;;;3.77;;
35540;SDS011;21650;48.840;9.162;2023-02-28T01:57:36;3.97;;;3.53;;
35540;SDS011;21650;48.840;9.162;2023-02-28T02:00:13;6.73;;;3.30;;
35540;SDS011;21650;48.840;9.162;2023-02-28T02:02:45;5.67;;;3.77;;
35540;SDS011;21650;48.840;9.162;2023-02-28T02:05:23;5.30;;;3.57;;
35540;SDS011;21650;48.840;9.162;2023-02-28T02:07:52;5.40;;;3.70;;
35540;SDS011;21650;48.840;9.162;2023-02-28T02:10:21;5.37;;;3.47;;
35540;SDS011;21650;48.840;9.162;2023-02-28T02:19:17;6.63;;;3.33;;
35540;SDS011;21650;48.840;9.162;2023-02-28T02:27:38;5.77;;;3.97;;
35540;SDS011;21650;48.840;9.162;2023-02-28T02:36:28;4.50;;;3.90;;
35540;SDS011;21650;48.840;9.162;2023-02-28T02:41:33;6.83;;;4.13;;
35540;SDS011;21650;48.840;9.162;2023-02-28T02:47:01;8.40;;;4.13;;
35540;SDS011;21650;48.840;9.162;2023-02-28T02:49:31;4.23;;;3.63;;
35540;SDS011;21650;48.840;9.162;2023-02-28T02:52:00;5.70;;;4.17;;
35540;SDS011;21650;48.840;9.162;2023-02-28T02:54:30;4.97;;;2.93;;
35540;SDS011;21650;48.840;9.162;2023-02-28T02:57:07;4.57;;;3.87;;
35540;SDS011;21650;48.840;9.162;2023-02-28T02:59:37;5.50;;;3.97;;
35540;SDS011;21650;48.840;9.162;2023-02-28T03:02:05;6.73;;;4.20;;
35540;SDS011;21650;48.840;9.162;2023-02-28T03:04:35;4.50;;;3.40;;
35540;SDS011;21650;48.840;9.162;2023-02-28T03:07:07;6.27;;;4.37;;
35540;SDS011;21650;48.840;9.162;2023-02-28T03:09:33;6.70;;;3.93;;
35540;SDS011;21650;48.840;9.162;2023-02-28T03:12:00;7.10;;;4.17;;
35540;SDS011;21650;48.840;9.162;2023-02-28T03:14:36;6.77;;;3.80;;
35540;SDS011;21650;48.840;9.162;2023-02-28T03:17:26;6.03;;;4.50;;
35540;SDS011;21650;48.840;9.162;2023-02-28T03:25:48;8.53;;;4.70;;
35540;SDS011;21650;48.840;9.162;2023-02-28T03:28:27;7.17;;;3.80;;
35540;SDS011;21650;48.840;9.162;2023-02-28T03:31:17;5.90;;;4.00;;
35540;SDS011;21650;48.840;9.162;2023-02-28T03:36:36;5.60;;;4.10;;
35540;SDS011;21650;48.840;9.162;2023-02-28T03:39:08;6.07;;;4.10;;
35540;SDS011;21650;48.840;9.162;2023-02-28T03:41:41;6.57;;;4.43;;
35540;SDS011;21650;48.840;9.162;2023-02-28T03:44:13;4.83;;;3.93;;
35540;SDS011;21650;48.840;9.162;2023-02-28T03:46:45;5.47;;;4.10;;
35540;SDS011;21650;48.840;9.162;2023-02-28T03:49:19;5.87;;;4.60;;
35540;SDS011;21650;48.840;9.162;2023-02-28T03:51:48;5.90;;;4.20;;
35540;SDS011;21650;48.840;9.162;2023-02-28T03:54:17;5.37;;;4.30;;
35540;SDS011;21650;48.840;9.162;2023-02-28T03:56:54;6.93;;;4.90;;
35540;SDS011;21650;48.840;9.162;2023-02-28T03:59:28;8.27;;;4.63;;
35540;SDS011;21650;48.840;9.162;2023-02-28T04:02:07;4.90;;;4.40;;
35540;SDS011;21650;48.840;9.162;2023-02-28T04:04:33;4.53;;;4.07;;
35540;SDS011;21650;48.840;9.162;2023-02-28T04:07:06;7.07;;;4.50;;
35540;SDS011;21650;48.840;9.162;2023-02-28T04:09:33;6.53;;;4.10;;
35540;SDS011;21650;48.840;9.162;2023-02-28T04:11:59;5.03;;;4.53;;
35540;SDS011;21650;48.840;9.162;2023-02-28T04:14:24;6.63;;;4.67;;
35540;SDS011;21650;48.840;9.162;2023-02-28T04:16:50;6.80;;;4.63;;
35540;SDS011;21650;48.840;9.162;2023-02-28T04:19:16;5.60;;;4.00;;
35540;SDS011;21650;48.840;9.162;2023-02-28T04:21:51;7.20;;;4.53;;
35540;SDS011;21650;48.840;9.162;2023-02-28T04:24:19;6.23;;;4.23;;
35540;SDS011;21650;48.840;9.162;2023-02-28T04:26:48;5.50;;;4.50;;
35540;SDS011;21650;48.840;9.162;2023-02-28T04:29:19;5.80;;;4.90;;
35540;SDS011;21650;48.840;9.162;2023-02-28T04:31:47;6.90;;;4.87;;
35540;SDS011;21650;48.840;9.162;2023-02-28T04:34:12;8.53;;;4.63;;
35540;SDS011;21650;48.840;9.162;2023-02-28T04:36:38;7.93;;;5.07;;
35540;SDS011;21650;48.840;9.162;2023-02-28T04:39:04;7.43;;;4.70;;
35540;SDS011;21650;48.840;9.162;2023-02-28T04:41:29;6.73;;;4.33;;
35540;SDS011;21650;48.840;9.162;2023-02-28T04:43:55;8.57;;;4.83;;
35540;SDS011;21650;48.840;9.162;2023-02-28T04:46:21;7.50;;;4.77;;
35540;SDS011;21650;48.840;9.162;2023-02-28T04:48:47;6.70;;;4.70;;
35540;SDS011;21650;48.840;9.162;2023-02-28T04:51:14;8.60;;;4.90;;
35540;SDS011;21650;48.840;9.162;2023-02-28T04:53:41;6.40;;;4.90;;
35540;SDS011;21650;48.840;9.162;2023-02-28T04:56:09;9.33;;;6.03;;
35540;SDS011;21650;48.840;9.162;2023-02-28T04:58:37;6.77;;;4.70;;
35540;SDS011;21650;48.840;9.162;2023-02-28T05:01:03;6.33;;;5.23;;
35540;SDS011;21650;48.840;9.162;2023-02-28T05:03:38;11.57;;;5.90;;
35540;SDS011;21650;48.840;9.162;2023-02-28T05:06:05;7.93;;;4.70;;
35540;SDS011;21650;48.840;9.162;2023-02-28T05:08:32;10.23;;;6.50;;
35540;SDS011;21650;48.840;9.162;2023-02-28T05:10:57;6.03;;;5.13;;
35540;SDS011;21650;48.840;9.162;2023-02-28T05:13:25;7.10;;;4.63;;
35540;SDS011;21650;48.840;9.162;2023-02-28T05:15:51;10.33;;;5.40;;
35540;SDS011;21650;48.840;9.162;2023-02-28T05:18:17;6.13;;;4.83;;
35540;SDS011;21650;48.840;9.162;2023-02-28T05:20:42;8.03;;;5.30;;
35540;SDS011;21650;48.840;9.162;2023-02-28T05:23:08;8.60;;;5.03;;
35540;SDS011;21650;48.840;9.162;2023-02-28T05:25:37;10.03;;;5.67;;
35540;SDS011;21650;48.840;9.162;2023-02-28T05:28:03;7.00;;;4.70;;
35540;SDS011;21650;48.840;9.162;2023-02-28T05:30:29;6.47;;;4.30;;
35540;SDS011;21650;48.840;9.162;2023-02-28T05:32:56;7.73;;;4.97;;
35540;SDS011;21650;48.840;9.162;2023-02-28T05:35:22;8.40;;;4.23;;
35540;SDS011;21650;48.840;9.162;2023-02-28T05:37:48;8.83;;;5.27;;
35540;SDS011;21650;48.840;9.162;2023-02-28T05:40:13;8.93;;;5.20;;
35540;SDS011;21650;48.840;9.162;2023-02-28T05:42:40;7.93;;;5.30;;
35540;SDS011;21650;48.840;9.162;2023-02-28T05:45:06;10.37;;;5.10;;
35540;SDS011;21650;48.840;9.162;2023-02-28T05:47:32;9.97;;;6.20;;
35540;SDS011;21650;48.840;9.162;2023-02-28T05:49:58;6.83;;;5.30;;
35540;SDS011;21650;48.840;9.162;2023-02-28T05:52:23;9.87;;;5.23;;
35540;SDS011;21650;48.840;9.162;2023-02-28T05:54:49;10.90;;;5.00;;
35540;SDS011;21650;48.840;9.162;2023-02-28T05:57:14;8.80;;;5.50;;
35540;SDS011;21650;48.840;9.162;2023-02-28T05:59:40;7.43;;;4.87;;
35540;SDS011;21650;48.840;9.162;2023-02-28T06:02:06;8.60;;;5.47;;
35540;SDS011;21650;48.840;9.162;2023-02-28T06:04:37;9.97;;;5.37;;
35540;SDS011;21650;48.840;9.162;2023-02-28T06:07:03;10.70;;;5.20;;
35540;SDS011;21650;48.840;9.162;2023-02-28T06:09:28;8.57;;;5.53;;
35540;SDS011;21650;48.840;9.162;2023-02-28T06:11:54;7.67;;;4.93;;
35540;SDS011;21650;48.840;9.162;2023-02-28T06:14:22;10.13;;;5.53;;
35540;SDS011;21650;48.840;9.162;2023-02-28T06:16:47;11.37;;;6.13;;
35540;SDS011;21650;48.840;9.162;2023-02-28T06:19:13;10.63;;;5.97;;
35540;SDS011;21650;48.840;9.162;2023-02-28T06:21:40;13.33;;;5.03;;
35540;SDS011;21650;48.840;9.162;2023-02-28T06:24:05;9.97;;;5.90;;
35540;SDS011;21650;48.840;9.162;2023-02-28T06:26:31;9.53;;;5.47;;
35540;SDS011;21650;48.840;9.162;2023-02-28T06:28:57;8.63;;;5.30;;
35540;SDS011;21650;48.840;9.162;2023-02-28T06:31:23;10.33;;;5.97;;
35540;SDS011;21650;48.840;9.162;2023-02-28T06:33:50;10.23;;;5.93;;
35540;SDS011;21650;48.840;9.162;2023-02-28T06:36:16;11.60;;;6.23;;
35540;SDS011;21650;48.840;9.162;2023-02-28T06:38:42;7.93;;;5.67;;
35540;SDS011;21650;48.840;9.162;2023-02-28T06:41:09;10.60;;;5.87;;
35540;SDS011;21650;48.840;9.162;2023-02-28T06:43:37;9.47;;;6.07;;
35540;SDS011;21650;48.840;9.162;2023-02-28T06:46:07;8.30;;;5.10;;
35540;SDS011;21650;48.840;9.162;2023-02-28T06:48:33;9.47;;;5.67;;
35540;SDS011;21650;48.840;9.162;2023-02-28T06:51:05;9.93;;;6.10;;
35540;SDS011;21650;48.840;9.162;2023-02-28T06:53:33;9.80;;;5.97;;
35540;SDS011;21650;48.840;9.162;2023-02-28T06:55:59;8.37;;;5.83;;
35540;SDS011;21650;48.840;9.162;2023-02-28T06:58:24;9.17;;;5.60;;
35540;SDS011;21650;48.840;9.162;2023-02-28T07:00:50;8.37;;;5.73;;
35540;SDS011;21650;48.840;9.162;2023-02-28T07:03:17;9.63;;;6.07;;
35540;SDS011;21650;48.840;9.162;2023-02-28T07:05:43;10.77;;;6.37;;
35540;SDS011;21650;48.840;9.162;2023-02-28T07:08:09;10.07;;;6.27;;
35540;SDS011;21650;48.840;9.162;2023-02-28T07:10:36;8.07;;;5.67;;
35540;SDS011;21650;48.840;9.162;2023-02-28T07:13:03;9.93;;;5.87;;
35540;SDS011;21650;48.840;9.162;2023-02-28T07:15:29;8.77;;;5.40;;
35540;SDS011;21650;48.840;9.162;2023-02-28T07:17:55;10.77;;;6.00;;
35540;SDS011;21650;48.840;9.162;2023-02-28T07:20:21;9.53;;;6.13;;
35540;SDS011;21650;48.840;9.162;2023-02-28T07:22:48;9.93;;;6.80;;
35540;SDS011;21650;48.840;9.162;2023-02-28T07:25:20;11.03;;;5.57;;
35540;SDS011;21650;48.840;9.162;2023-02-28T07:27:46;9.63;;;5.90;;
35540;SDS011;21650;48.840;9.162;2023-02-28T07:30:12;13.10;;;6.90;;
35540;SDS011;21650;48.840;9.162;2023-02-28T07:32:38;11.37;;;7.07;;
35540;SDS011;21650;48.840;9.162;2023-02-28T07:35:03;12.53;;;6.27;;
35540;SDS011;21650;48.840;9.162;2023-02-28T07:37:29;9.33;;;6.13;;
35540;SDS011;21650;48.840;9.162;2023-02-28T07:39:56;10.97;;;6.20;;
35540;SDS011;21650;48.840;9.162;2023-02-28T07:42:22;18.93;;;6.37;;
35540;SDS011;21650;48.840;9.162;2023-02-28T07:44:48;9.70;;;6.50;;
35540;SDS011;21650;48.840;9.162;2023-02-28T07:47:13;13.60;;;6.60;;
35540;SDS011;21650;48.840;9.162;2023-02-28T07:49:39;8.33;;;6.10;;
35540;SDS011;21650;48.840;9.162;2023-02-28T07:52:06;10.50;;;6.63;;
35540;SDS011;21650;48.840;9.162;2023-02-28T07:54:32;10.97;;;6.97;;
35540;SDS011;21650;48.840;9.162;2023-02-28T07:56:58;11.07;;;6.37;;
35540;SDS011;21650;48.840;9.162;2023-02-28T07:59:24;8.93;;;5.97;;
35540;SDS011;21650;48.840;9.162;2023-02-28T08:01:50;10.13;;;5.50;;
35540;SDS011;21650;48.840;9.162;2023-02-28T08:04:16;9.50;;;6.37;;
35540;SDS011;21650;48.840;9.162;2023-02-28T08:06:42;12.50;;;6.77;;
35540;SDS011;21650;48.840;9.162;2023-02-28T08:09:08;11.27;;;6.40;;
35540;SDS011;21650;48.840;9.162;2023-02-28T08:11:33;12.90;;;7.20;;
35540;SDS011;21650;48.840;9.162;2023-02-28T08:13:59;12.73;;;6.83;;
35540;SDS011;21650;48.840;9.162;2023-02-28T08:16:25;14.43;;;6.70;;
35540;SDS011;21650;48.840;9.162;2023-02-28T08:18:51;15.33;;;7.07;;
35540;SDS011;21650;48.840;9.162;2023-02-28T08:21:18;9.97;;;6.60;;
35540;SDS011;21650;48.840;9.162;2023-02-28T08:23:46;9.70;;;6.77;;
35540;SDS011;21650;48.840;9.162;2023-02-28T08:26:13;9.13;;;6.63;;
35540;SDS011;21650;48.840;9.162;2023-02-28T08:28:39;9.87;;;6.77;;
35540;SDS011;21650;48.840;9.162;2023-02-28T08:31:09;9.73;;;6.43;;
35540;SDS011;21650;48.840;9.162;2023-02-28T08:33:35;11.40;;;6.73;;
35540;SDS011;21650;48.840;9.162;2023-02-28T08:36:01;11.00;;;7.23;;
35540;SDS011;21650;48.840;9.162;2023-02-28T08:38:27;11.27;;;7.47;;
35540;SDS011;21650;48.840;9.162;2023-02-28T08:40:59;10.93;;;6.70;;
35540;SDS011;21650;48.840;9.162;2023-02-28T08:43:25;10.30;;;7.30;;
35540;SDS011;21650;48.840;9.162;2023-02-28T08:45:55;11.03;;;6.83;;
35540;SDS011;21650;48.840;9.162;2023-02-28T08:48:22;10.57;;;7.17;;
35540;SDS011;21650;48.840;9.162;2023-02-28T08:50:55;13.90;;;6.80;;
35540;SDS011;21650;48.840;9.162;2023-02-28T08:53:25;12.07;;;7.20;;
35540;SDS011;21650;48.840;9.162;2023-02-28T08:56:00;11.90;;;6.60;;
35540;SDS011;21650;48.840;9.162;2023-02-28T08:58:28;10.30;;;7.53;;
35540;SDS011;21650;48.840;9.162;2023-02-28T09:00:53;13.93;;;7.73;;
35540;SDS011;21650;48.840;9.162;2023-02-28T09:03:20;12.20;;;7.73;;
35540;SDS011;21650;48.840;9.162;2023-02-28T09:05:53;10.30;;;7.33;;
35540;SDS011;21650;48.840;9.162;2023-02-28T09:08:20;13.30;;;7.53;;
35540;SDS011;21650;48.840;9.162;2023-02-28T09:10:46;13.10;;;7.77;;
35540;SDS011;21650;48.840;9.162;2023-02-28T09:13:12;12.83;;;7.73;;
35540;SDS011;21650;48.840;9.162;2023-02-28T09:15:38;10.67;;;7.40;;
35540;SDS011;21650;48.840;9.162;2023-02-28T09:18:04;13.03;;;7.63;;
35540;SDS011;21650;48.840;9.162;2023-02-28T09:20:29;13.70;;;7.57;;
35540;SDS011;21650;48.840;9.162;2023-02-28T09:22:55;12.70;;;7.70;;
35540;SDS011;21650;48.840;9.162;2023-02-28T09:25:20;14.70;;;7.27;;
35540;SDS011;21650;48.840;9.162;2023-02-28T09:27:46;11.80;;;7.13;;
35540;SDS011;21650;48.840;9.162;2023-02-28T09:30:12;11.93;;;7.93;;
35540;SDS011;21650;48.840;9.162;2023-02-28T09:32:38;14.13;;;7.77;;
35540;SDS011;21650;48.840;9.162;2023-02-28T09:35:04;13.27;;;8.30;;
35540;SDS011;21650;48.840;9.162;2023-02-28T09:37:30;12.93;;;8.10;;
35540;SDS011;21650;48.840;9.162;2023-02-28T09:39:56;13.83;;;6.97;;
35540;SDS011;21650;48.840;9.162;2023-02-28T09:42:24;12.97;;;8.40;;
35540;SDS011;21650;48.840;9.162;2023-02-28T09:45:02;11.23;;;7.60;;
35540;SDS011;21650;48.840;9.162;2023-02-28T09:47:39;12.17;;;8.03;;
35540;SDS011;21650;48.840;9.162;2023-02-28T09:50:16;12.53;;;7.83;;
35540;SDS011;21650;48.840;9.162;2023-02-28T09:52:48;12.73;;;6.67;;
35540;SDS011;21650;48.840;9.162;2023-02-28T09:57:55;15.00;;;8.67;;
35540;SDS011;21650;48.840;9.162;2023-02-28T10:00:27;13.03;;;9.10;;
35540;SDS011;21650;48.840;9.162;2023-02-28T10:05:51;13.17;;;8.30;;
35540;SDS011;21650;48.840;9.162;2023-02-28T10:08:37;11.50;;;8.07;;
35540;SDS011;21650;48.840;9.162;2023-02-28T10:11:10;13.13;;;7.97;;
35540;SDS011;21650;48.840;9.162;2023-02-28T10:13:51;17.90;;;7.53;;
35540;SDS011;21650;48.840;9.162;2023-02-28T10:19:13;14.07;;;8.30;;
35540;SDS011;21650;48.840;9.162;2023-02-28T10:22:03;15.03;;;8.50;;
35540;SDS011;21650;48.840;9.162;2023-02-28T10:24:38;12.83;;;8.33;;
35540;SDS011;21650;48.840;9.162;2023-02-28T10:29:43;15.87;;;8.10;;
35540;SDS011;21650;48.840;9.162;2023-02-28T10:32:11;12.60;;;8.63;;
35540;SDS011;21650;48.840;9.162;2023-02-28T10:34:43;10.57;;;7.27;;
35540;SDS011;21650;48.840;9.162;2023-02-28T10:37:10;14.10;;;8.13;;
35540;SDS011;21650;48.840;9.162;2023-02-28T10:39:39;13.70;;;8.10;;
35540;SDS011;21650;48.840;9.162;2023-02-28T10:42:18;13.37;;;8.27;;
35540;SDS011;21650;48.840;9.162;2023-02-28T10:45:04;15.40;;;9.40;;
35540;SDS011;21650;48.840;9.162;2023-02-28T10:47:35;11.10;;;8.37;;
35540;SDS011;21650;48.840;9.162;2023-02-28T10:50:23;12.20;;;8.67;;
35540;SDS011;21650;48.840;9.162;2023-02-28T10:55:56;12.97;;;8.17;;
35540;SDS011;21650;48.840;9.162;2023-02-28T10:58:24;15.03;;;9.47;;
35540;SDS011;21650;48.840;9.162;2023-02-28T11:00:51;16.47;;;9.20;;
35540;SDS011;21650;48.840;9.162;2023-02-28T11:03:23;12.97;;;8.47;;
35540;SDS011;21650;48.840;9.162;2023-02-28T11:05:56;14.67;;;8.33;;
35540;SDS011;21650;48.840;9.162;2023-02-28T11:08:22;13.63;;;8.90;;
35540;SDS011;21650;48.840;9.162;2023-02-28T11:10:54;10.60;;;7.97;;
35540;SDS011;21650;48.840;9.162;2023-02-28T11:13:24;13.53;;;8.80;;
35540;SDS011;21650;48.840;9.162;2023-02-28T11:15:54;14.80;;;8.93;;
35540;SDS011;21650;48.840;9.162;2023-02-28T11:18:23;14.30;;;9.10;;
35540;SDS011;21650;48.840;9.162;2023-02-28T11:20:54;13.73;;;9.23;;
35540;SDS011;21650;48.840;9.162;2023-02-28T11:23:22;14.30;;;9.30;;
35540;SDS011;21650;48.840;9.162;2023-02-28T11:25:52;12.97;;;9.20;;
35540;SDS011;21650;48.840;9.162;2023-02-28T11:31:26;10.90;;;8.33;;
35540;SDS011;21650;48.840;9.162;2023-02-28T11:36:23;11.77;;;8.23;;
35540;SDS011;21650;48.840;9.162;2023-02-28T11:38:50;16.80;;;8.70;;
35540;SDS011;21650;48.840;9.162;2023-02-28T11:49:30;14.83;;;8.53;;
35540;SDS011;21650;48.840;9.162;2023-02-28T11:52:13;16.07;;;8.67;;
35540;SDS011;21650;48.840;9.162;2023-02-28T12:05:24;15.93;;;9.10;;
35540;SDS011;21650;48.840;9.162;2023-02-28T12:13:37;18.53;;;8.43;;
35540;SDS011;21650;48.840;9.162;2023-02-28T12:21:38;11.20;;;8.07;;
35540;SDS011;21650;48.840;9.162;2023-02-28T12:27:09;10.20;;;7.63;;
35540;SDS011;21650;48.840;9.162;2023-02-28T12:37:36;10.73;;;8.57;;
35540;SDS011;21650;48.840;9.162;2023-02-28T12:40:30;12.40;;;9.07;;
35540;SDS011;21650;48.840;9.162;2023-02-28T12:42:59;12.73;;;8.57;;
35540;SDS011;21650;48.840;9.162;2023-02-28T12:48:27;16.50;;;7.97;;
35540;SDS011;21650;48.840;9.162;2023-02-28T12:51:02;10.93;;;8.33;;
35540;SDS011;21650;48.840;9.162;2023-02-28T12:56:21;11.70;;;8.20;;
35540;SDS011;21650;48.840;9.162;2023-02-28T12:58:56;14.87;;;8.83;;
35540;SDS011;21650;48.840;9.162;2023-02-28T13:01:36;15.33;;;8.37;;
35540;SDS011;21650;48.840;9.162;2023-02-28T13:10:17;11.17;;;8.37;;
35540;SDS011;21650;48.840;9.162;2023-02-28T13:12:52;13.97;;;8.00;;
35540;SDS011;21650;48.840;9.162;2023-02-28T13:15:26;12.10;;;8.53;;
35540;SDS011;21650;48.840;9.162;2023-02-28T13:17:57;13.63;;;8.43;;
35540;SDS011;21650;48.840;9.162;2023-02-28T13:20:31;13.20;;;8.90;;
35540;SDS011;21650;48.840;9.162;2023-02-28T13:23:00;10.20;;;7.47;;
35540;SDS011;21650;48.840;9.162;2023-02-28T13:27:59;9.77;;;7.50;;
35540;SDS011;21650;48.840;9.162;2023-02-28T13:38:43;9.93;;;7.73;;
35540;SDS011;21650;48.840;9.162;2023-02-28T13:43:59;12.23;;;7.40;;
35540;SDS011;21650;48.840;9.162;2023-02-28T13:46:27;12.90;;;7.20;;
35540;SDS011;21650;48.840;9.162;2023-02-28T13:48:53;9.17;;;7.30;;
35540;SDS011;21650;48.840;9.162;2023-02-28T13:51:37;11.77;;;7.27;;
35540;SDS011;21650;48.840;9.162;2023-02-28T13:54:16;9.33;;;7.10;;
35540;SDS011;21650;48.840;9.162;2023-02-28T14:05:05;12.70;;;7.97;;
35540;SDS011;21650;48.840;9.162;2023-02-28T14:07:48;10.50;;;7.60;;
35540;SDS011;21650;48.840;9.162;2023-02-28T14:10:22;12.20;;;8.30;;
35540;SDS011;21650;48.840;9.162;2023-02-28T14:16:17;10.17;;;7.87;;
35540;SDS011;21650;48.840;9.162;2023-02-28T14:18:50;15.97;;;8.27;;
35540;SDS011;21650;48.840;9.162;2023-02-28T14:21:31;12.23;;;8.03;;
35540;SDS011;21650;48.840;9.162;2023-02-28T14:38:00;12.07;;;8.57;;
35540;SDS011;21650;48.840;9.162;2023-02-28T14:40:34;12.07;;;7.77;;
35540;SDS011;21650;48.840;9.162;2023-02-28T14:43:01;13.47;;;7.63;;
35540;SDS011;21650;48.840;9.162;2023-02-28T14:45:42;10.23;;;7.63;;
35540;SDS011;21650;48.840;9.162;2023-02-28T14:48:09;12.17;;;8.13;;
35540;SDS011;21650;48.840;9.162;2023-02-28T14:50:36;10.83;;;8.00;;
35540;SDS011;21650;48.840;9.162;2023-02-28T14:53:02;10.60;;;7.67;;
35540;SDS011;21650;48.840;9.162;2023-02-28T14:55:30;13.60;;;7.77;;
35540;SDS011;21650;48.840;9.162;2023-02-28T14:57:59;12.57;;;7.70;;
35540;SDS011;21650;48.840;9.162;2023-02-28T15:00:34;10.60;;;7.53;;
35540;SDS011;21650;48.840;9.162;2023-02-28T15:03:38;12.90;;;8.57;;
35540;SDS011;21650;48.840;9.162;2023-02-28T15:06:03;10.97;;;7.97;;
35540;SDS011;21650;48.840;9.162;2023-02-28T15:08:30;13.67;;;8.70;;
35540;SDS011;21650;48.840;9.162;2023-02-28T15:22:04;10.57;;;7.87;;
35540;SDS011;21650;48.840;9.162;2023-02-28T15:24:43;15.37;;;9.53;;
35540;SDS011;21650;48.840;9.162;2023-02-28T15:29:48;11.60;;;7.80;;
35540;SDS011;21650;48.840;9.162;2023-02-28T15:32:29;11.77;;;8.33;;
35540;SDS011;21650;48.840;9.162;2023-02-28T15:35:17;10.43;;;7.93;;
35540;SDS011;21650;48.840;9.162;2023-02-28T15:40:41;10.73;;;7.63;;
35540;SDS011;21650;48.840;9.162;2023-02-28T15:43:22;13.30;;;8.73;;
35540;SDS011;21650;48.840;9.162;2023-02-28T15:46:05;11.00;;;8.13;;
35540;SDS011;21650;48.840;9.162;2023-02-28T15:51:12;13.67;;;8.37;;
35540;SDS011;21650;48.840;9.162;2023-02-28T15:53:56;14.03;;;9.23;;
35540;SDS011;21650;48.840;9.162;2023-02-28T15:56:38;13.03;;;8.47;;
35540;SDS011;21650;48.840;9.162;2023-02-28T15:59:12;12.93;;;9.23;;
35540;SDS011;21650;48.840;9.162;2023-02-28T16:01:42;14.53;;;8.43;;
35540;SDS011;21650;48.840;9.162;2023-02-28T16:04:15;13.53;;;8.60;;
35540;SDS011;21650;48.840;9.162;2023-02-28T16:06:46;11.07;;;8.23;;
35540;SDS011;21650;48.840;9.162;2023-02-28T16:09:30;15.13;;;9.03;;
35540;SDS011;21650;48.840;9.162;2023-02-28T16:11:56;12.20;;;8.27;;
35540;SDS011;21650;48.840;9.162;2023-02-28T16:14:27;12.27;;;8.27;;
35540;SDS011;21650;48.840;9.162;2023-02-28T16:16:56;14.10;;;8.13;;
35540;SDS011;21650;48.840;9.162;2023-02-28T16:19:29;12.37;;;8.40;;
35540;SDS011;21650;48.840;9.162;2023-02-28T16:21:55;12.07;;;8.37;;
35540;SDS011;21650;48.840;9.162;2023-02-28T16:24:21;13.33;;;9.27;;
35540;SDS011;21650;48.840;9.162;2023-02-28T16:26:47;14.40;;;9.03;;
35540;SDS011;21650;48.840;9.162;2023-02-28T16:29:26;13.90;;;8.53;;
35540;SDS011;21650;48.840;9.162;2023-02-28T16:31:56;12.03;;;8.40;;
35540;SDS011;21650;48.840;9.162;2023-02-28T16:34:21;14.43;;;8.77;;
35540;SDS011;21650;48.840;9.162;2023-02-28T16:36:47;13.23;;;8.63;;
35540;SDS011;21650;48.840;9.162;2023-02-28T16:39:14;13.93;;;7.83;;
35540;SDS011;21650;48.840;9.162;2023-02-28T16:41:41;12.43;;;8.50;;
35540;SDS011;21650;48.840;9.162;2023-02-28T16:44:21;10.07;;;8.03;;
35540;SDS011;21650;48.840;9.162;2023-02-28T16:46:53;14.23;;;9.33;;
35540;SDS011;21650;48.840;9.162;2023-02-28T16:49:19;12.17;;;9.00;;
35540;SDS011;21650;48.840;9.162;2023-02-28T16:51:45;12.87;;;8.63;;
35540;SDS011;21650;48.840;9.162;2023-02-28T16:54:11;16.40;;;9.47;;
35540;SDS011;21650;48.840;9.162;2023-02-28T16:56:37;20.80;;;8.70;;
35540;SDS011;21650;48.840;9.162;2023-02-28T16:59:07;14.87;;;8.20;;
35540;SDS011;21650;48.840;9.162;2023-02-28T17:01:34;18.10;;;9.17;;
35540;SDS011;21650;48.840;9.162;2023-02-28T17:03:59;14.77;;;9.97;;
35540;SDS011;21650;48.840;9.162;2023-02-28T17:06:26;19.50;;;9.10;;
35540;SDS011;21650;48.840;9.162;2023-02-28T17:08:53;17.80;;;9.13;;
35540;SDS011;21650;48.840;9.162;2023-02-28T17:11:20;15.50;;;10.00;;
35540;SDS011;21650;48.840;9.162;2023-02-28T17:14:05;16.37;;;9.63;;
35540;SDS011;21650;48.840;9.162;2023-02-28T17:16:32;16.60;;;10.30;;
35540;SDS011;21650;48.840;9.162;2023-02-28T17:19:02;15.73;;;10.20;;
35540;SDS011;21650;48.840;9.162;2023-02-28T17:21:29;17.23;;;9.47;;
35540;SDS011;21650;48.840;9.162;2023-02-28T17:23:56;14.53;;;9.60;;
35540;SDS011;21650;48.840;9.162;2023-02-28T17:26:22;18.87;;;10.43;;
35540;SDS011;21650;48.840;9.162;2023-02-28T17:28:49;16.43;;;9.77;;
35540;SDS011;21650;48.840;9.162;2023-02-28T17:31:20;12.73;;;8.60;;
35540;SDS011;21650;48.840;9.162;2023-02-28T17:33:47;15.53;;;9.90;;
35540;SDS011;21650;48.840;9.162;2023-02-28T17:36:16;14.60;;;10.00;;
35540;SDS011;21650;48.840;9.162;2023-02-28T17:38:47;17.90;;;11.83;;